createdAt,value
2023-05-12T00:00:31.306Z,8.8057
2023-05-12T00:01:32.754Z,8.8121
2023-05-12T00:02:33.349Z,8.8119
2023-05-12T00:03:33.693Z,8.7984
2023-05-12T00:04:34.267Z,8.7888
2023-05-12T00:05:35.053Z,8.7910
2023-05-12T00:06:35.590Z,8.8072
2023-05-12T00:07:35.948Z,8.8334
2023-05-12T00:08:36.545Z,8.8363
2023-05-12T00:09:37.906Z,8.8586
2023-05-12T00:10:38.430Z,8.8774
2023-05-12T00:11:38.681Z,8.8804
2023-05-12T00:12:39.443Z,8.8744
2023-05-12T00:16:40.666Z,8.8560
2023-05-12T00:17:40.916Z,8.8646
2023-05-12T00:18:42.040Z,8.8787
2023-05-12T00:19:43.077Z,8.8725
2023-05-12T00:20:44.023Z,8.8855
2023-05-12T00:21:43.534Z,8.8895
2023-05-12T00:22:44.409Z,8.8643
2023-05-12T00:23:44.782Z,8.8707
2023-05-12T00:24:45.661Z,8.8543
2023-05-12T00:25:45.894Z,8.8693
2023-05-12T00:26:46.530Z,8.8668
2023-05-12T00:27:47.084Z,8.8365
2023-05-12T00:28:47.472Z,8.8446
2023-05-12T00:29:49.402Z,8.8466
2023-05-12T00:33:50.911Z,8.8046
2023-05-12T00:34:51.983Z,8.8046
2023-05-12T00:36:53.212Z,8.8030
2023-05-12T00:41:56.645Z,8.7628
2023-05-12T00:43:57.198Z,8.7810
2023-05-12T00:44:57.582Z,8.7784
2023-05-12T00:45:58.774Z,8.7661
2023-05-12T00:46:59.511Z,8.7471
2023-05-12T00:48:59.918Z,8.7730
2023-05-12T00:50:00.214Z,8.7599
2023-05-12T00:51:00.789Z,8.7625
2023-05-12T00:52:01.425Z,8.7672
2023-05-12T00:53:01.877Z,8.7660
2023-05-12T00:54:02.237Z,8.7586
2023-05-12T00:55:03.666Z,8.7525
2023-05-12T00:56:04.348Z,8.7506
2023-05-12T00:57:04.541Z,8.7556
2023-05-12T00:58:05.403Z,8.7494
2023-05-12T00:59:05.982Z,8.7495
2023-05-12T01:00:07.248Z,8.7421
2023-05-12T01:01:07.899Z,8.7404
2023-05-12T01:02:07.887Z,8.7575
2023-05-12T01:03:08.581Z,8.7547
2023-05-12T01:04:09.694Z,8.7537
2023-05-12T01:09:13.694Z,8.6659
2023-05-12T01:11:14.801Z,8.6696
2023-05-12T01:12:15.687Z,8.7134
2023-05-12T01:13:16.682Z,8.6763
2023-05-12T01:14:17.625Z,8.6811
2023-05-12T01:15:18.521Z,8.6602
2023-05-12T01:16:19.043Z,8.6422
2023-05-12T01:17:19.276Z,8.6324
2023-05-12T01:18:19.936Z,8.6572
2023-05-12T01:19:20.527Z,8.6666
2023-05-12T01:20:21.235Z,8.6671
2023-05-12T01:24:23.772Z,8.6296
2023-05-12T01:25:24.263Z,8.6336
2023-05-12T01:27:25.695Z,8.6466
2023-05-12T01:28:25.952Z,8.6576
2023-05-12T01:29:26.588Z,8.6615
2023-05-12T01:30:26.833Z,8.6538
2023-05-12T01:31:27.962Z,8.6216
2023-05-12T01:32:28.650Z,8.6187
2023-05-12T01:33:29.400Z,8.6245
2023-05-12T01:34:29.768Z,8.6243
2023-05-12T01:35:30.447Z,8.6302
2023-05-12T01:36:30.928Z,8.6489
2023-05-12T01:37:31.017Z,8.6576
2023-05-12T01:38:31.919Z,8.6544
2023-05-12T01:39:32.573Z,8.6504
2023-05-12T01:40:33.319Z,8.6391
2023-05-12T01:41:33.522Z,8.6362
2023-05-12T01:42:34.777Z,8.6347
2023-05-12T01:43:35.234Z,8.6198
2023-05-12T01:44:36.483Z,8.5990
2023-05-12T01:45:37.022Z,8.5825
2023-05-12T01:46:38.438Z,8.5932
2023-05-12T01:47:39.607Z,8.6179
2023-05-12T01:48:39.956Z,8.6191
2023-05-12T01:49:40.688Z,8.6313
2023-05-12T01:50:41.454Z,8.6451
2023-05-12T01:51:42.487Z,8.6555
2023-05-12T01:52:42.882Z,8.6731
2023-05-12T01:53:43.558Z,8.6452
2023-05-12T01:54:43.593Z,8.6431
2023-05-12T01:55:44.803Z,8.6326
2023-05-12T01:56:44.957Z,8.6324
2023-05-12T01:57:46.080Z,8.6374
2023-05-12T01:58:46.621Z,8.6447
2023-05-12T01:59:47.450Z,8.6391
2023-05-12T02:00:48.222Z,8.6537
2023-05-12T02:01:49.565Z,8.6676
2023-05-12T02:02:49.531Z,8.6573
2023-05-12T02:03:49.805Z,8.6653
2023-05-12T02:04:50.977Z,8.6675
2023-05-12T02:05:51.950Z,8.6632
2023-05-12T02:06:52.928Z,8.6771
2023-05-12T02:08:54.345Z,8.6885
2023-05-12T02:09:54.545Z,8.7215
2023-05-12T02:10:56.694Z,8.7776
2023-05-12T02:11:57.543Z,8.8310
2023-05-12T02:12:58.160Z,8.8130
2023-05-12T02:13:58.737Z,8.7728
2023-05-12T02:14:59.676Z,8.7768
2023-05-12T02:15:59.714Z,8.7992
2023-05-12T02:17:00.340Z,8.7484
2023-05-12T02:18:01.140Z,8.7819
2023-05-12T02:19:02.006Z,8.7926
2023-05-12T02:20:02.730Z,8.7984
2023-05-12T02:21:03.635Z,8.7922
2023-05-12T02:22:04.201Z,8.8175
2023-05-12T02:23:04.729Z,8.8025
2023-05-12T02:24:05.925Z,8.7917
2023-05-12T02:25:06.538Z,8.8196
2023-05-12T02:26:06.554Z,8.8414
2023-05-12T02:27:07.345Z,8.8523
2023-05-12T02:28:07.889Z,8.8506
2023-05-12T02:29:08.644Z,8.8187
2023-05-12T02:30:09.313Z,8.8228
2023-05-12T02:31:10.246Z,8.8392
2023-05-12T02:32:11.382Z,8.8287
2023-05-12T02:34:11.858Z,8.8177
2023-05-12T02:38:14.082Z,8.8078
2023-05-12T02:39:15.184Z,8.7927
2023-05-12T02:40:15.255Z,8.7879
2023-05-12T02:41:16.986Z,8.7714
2023-05-12T02:42:17.063Z,8.7900
2023-05-12T02:43:18.489Z,8.8102
2023-05-12T02:44:19.040Z,8.8133
2023-05-12T02:45:19.272Z,8.7884
2023-05-12T02:46:20.051Z,8.7777
2023-05-12T02:47:20.225Z,8.7787
2023-05-12T02:48:20.940Z,8.7580
2023-05-12T02:49:21.631Z,8.7520
2023-05-12T02:50:22.550Z,8.7356
2023-05-12T02:51:22.422Z,8.6956
2023-05-12T02:55:23.940Z,8.6899
2023-05-12T02:56:24.286Z,8.6811
2023-05-12T02:57:25.197Z,8.6677
2023-05-12T02:58:25.537Z,8.6785
2023-05-12T02:59:26.653Z,8.6714
2023-05-12T03:00:27.296Z,8.6892
2023-05-12T03:01:27.532Z,8.6985
2023-05-12T03:02:27.911Z,8.7133
2023-05-12T03:03:28.711Z,8.7045
2023-05-12T03:05:30.110Z,8.6927
2023-05-12T03:08:32.594Z,8.6948
2023-05-12T03:09:33.291Z,8.7345
2023-05-12T03:10:34.030Z,8.6831
2023-05-12T03:11:34.578Z,8.6893
2023-05-12T03:12:34.803Z,8.6814
2023-05-12T03:13:35.132Z,8.7030
2023-05-12T03:14:38.528Z,8.7193
2023-05-12T03:16:37.709Z,8.7171
2023-05-12T03:17:38.059Z,8.7082
2023-05-12T03:18:38.807Z,8.7310
2023-05-12T03:19:39.557Z,8.7294
2023-05-12T03:20:39.721Z,8.7296
2023-05-12T03:21:40.864Z,8.7042
2023-05-12T03:23:41.919Z,8.6991
2023-05-12T03:25:42.706Z,8.7026
2023-05-12T03:26:44.458Z,8.6865
2023-05-12T03:27:45.559Z,8.6939
2023-05-12T03:28:47.037Z,8.6868
2023-05-12T03:29:47.234Z,8.6822
2023-05-12T03:30:47.217Z,8.6789
2023-05-12T03:31:48.403Z,8.6807
2023-05-12T03:33:49.314Z,8.7039
2023-05-12T03:35:51.413Z,8.6611
2023-05-12T03:36:52.056Z,8.6706
2023-05-12T03:37:53.203Z,8.6539
2023-05-12T03:41:54.884Z,8.6397
2023-05-12T03:42:55.105Z,8.6228
2023-05-12T03:43:56.839Z,8.6060
2023-05-12T03:44:57.174Z,8.6008
2023-05-12T03:45:57.750Z,8.5784
2023-05-12T03:46:59.133Z,8.5650
2023-05-12T03:47:59.210Z,8.5595
2023-05-12T03:49:00.041Z,8.5553
2023-05-12T03:50:00.541Z,8.5571
2023-05-12T03:51:01.123Z,8.5341
2023-05-12T03:56:05.253Z,8.4770
2023-05-12T03:57:06.363Z,8.5562
2023-05-12T03:59:07.351Z,8.6011
2023-05-12T04:00:07.434Z,8.6126
2023-05-12T04:01:08.158Z,8.5854
2023-05-12T04:02:09.471Z,8.5765
2023-05-12T04:03:10.008Z,8.5868
2023-05-12T04:04:10.068Z,8.6091
2023-05-12T04:05:10.308Z,8.6088
2023-05-12T04:07:11.513Z,8.6405
2023-05-12T04:08:11.707Z,8.6340
2023-05-12T04:09:12.867Z,8.6684
2023-05-12T04:10:12.950Z,8.6663
2023-05-12T04:11:14.917Z,8.6336
2023-05-12T04:12:15.537Z,8.6776
2023-05-12T04:13:16.726Z,8.6745
2023-05-12T04:15:17.011Z,8.7109
2023-05-12T04:16:17.314Z,8.7392
2023-05-12T04:17:18.637Z,8.7531
2023-05-12T04:18:18.795Z,8.7703
2023-05-12T04:20:20.110Z,8.8011
2023-05-12T04:26:20.547Z,8.7535
2023-05-12T04:27:21.839Z,8.7583
2023-05-12T04:28:22.133Z,8.7484
2023-05-12T04:29:22.182Z,8.7773
2023-05-12T04:30:22.690Z,8.7848
2023-05-12T04:31:23.139Z,8.8156
2023-05-12T04:32:24.757Z,8.8112
2023-05-12T04:33:25.178Z,8.7946
2023-05-12T04:34:25.678Z,8.8218
2023-05-12T04:35:26.360Z,8.8094
2023-05-12T04:36:26.940Z,8.7730
2023-05-12T04:37:27.418Z,8.7541
2023-05-12T04:38:27.792Z,8.7749
2023-05-12T04:42:29.366Z,8.8383
2023-05-12T04:44:30.371Z,8.8930
2023-05-12T04:45:31.538Z,8.8504
2023-05-12T04:46:32.493Z,8.8211
2023-05-12T04:47:32.689Z,8.8611
2023-05-12T04:48:34.183Z,8.9270
2023-05-12T04:49:34.684Z,8.9496
2023-05-12T04:50:35.601Z,8.9517
2023-05-12T04:51:35.812Z,8.9082
2023-05-12T04:52:36.302Z,8.9636
2023-05-12T04:53:37.177Z,8.8756
2023-05-12T04:54:37.635Z,8.9581
2023-05-12T04:55:37.674Z,8.8711
2023-05-12T04:56:38.427Z,8.9334
2023-05-12T04:57:38.912Z,8.9732
2023-05-12T04:58:38.782Z,8.8801
2023-05-12T04:59:41.185Z,8.9342
2023-05-12T05:00:39.928Z,8.9532
2023-05-12T05:01:41.052Z,8.9901
2023-05-12T05:05:43.686Z,8.9621
2023-05-12T05:09:46.451Z,9.1618
2023-05-12T05:10:47.419Z,9.1659
2023-05-12T05:11:48.101Z,9.1455
2023-05-12T05:12:48.735Z,9.1526
2023-05-12T05:13:49.486Z,9.1710
2023-05-12T05:14:50.062Z,9.1950
2023-05-12T05:15:50.278Z,9.2560
2023-05-12T05:16:51.174Z,9.2526
2023-05-12T05:17:52.166Z,9.1199
2023-05-12T05:18:53.018Z,9.2536
2023-05-12T05:19:58.357Z,9.1309
2023-05-12T05:20:58.327Z,9.2206
2023-05-12T05:21:54.618Z,9.3464
2023-05-12T05:22:56.020Z,9.3406
2023-05-12T05:26:58.284Z,9.5138
2023-05-12T05:28:59.801Z,9.4981
2023-05-12T05:30:00.688Z,9.5193
2023-05-12T05:31:01.842Z,9.4226
2023-05-12T05:32:02.536Z,9.4138
2023-05-12T05:33:03.722Z,9.5003
2023-05-12T05:34:04.286Z,9.7439
2023-05-12T05:35:04.987Z,9.6791
2023-05-12T05:36:05.888Z,9.6056
2023-05-12T05:37:07.004Z,9.7674
2023-05-12T05:38:07.657Z,9.8685
2023-05-12T05:39:08.863Z,9.7243
2023-05-12T05:40:09.479Z,9.8595
2023-05-12T05:41:09.642Z,9.6476
2023-05-12T05:42:09.775Z,9.7350
2023-05-12T05:43:10.874Z,9.8367
2023-05-12T05:44:11.936Z,10.0202
2023-05-12T05:45:12.702Z,9.9725
2023-05-12T05:46:13.541Z,10.1467
2023-05-12T05:47:14.124Z,10.1236
2023-05-12T05:48:15.029Z,10.0370
2023-05-12T05:49:16.053Z,9.8935
2023-05-12T05:50:17.055Z,10.0755
2023-05-12T05:51:17.111Z,10.0747
2023-05-12T05:52:17.576Z,10.2394
2023-05-12T05:53:18.481Z,10.4121
2023-05-12T05:54:18.799Z,10.9611
2023-05-12T05:55:19.454Z,10.7618
2023-05-12T05:56:19.488Z,10.5279
2023-05-12T05:58:21.549Z,10.1654
2023-05-12T05:59:22.257Z,10.2383
2023-05-12T06:00:23.294Z,10.0925
2023-05-12T06:01:24.078Z,10.3075
2023-05-12T06:02:24.628Z,10.1954
2023-05-12T06:03:25.358Z,10.1079
2023-05-12T06:04:26.642Z,10.0514
2023-05-12T06:06:27.614Z,10.0976
2023-05-12T06:08:28.406Z,10.1745
2023-05-12T06:09:28.642Z,10.1919
2023-05-12T06:10:29.797Z,10.3151
2023-05-12T06:11:30.445Z,10.6221
2023-05-12T06:12:31.281Z,10.3657
2023-05-12T06:13:31.424Z,10.5099
2023-05-12T06:14:32.491Z,10.5510
2023-05-12T06:15:32.609Z,10.3479
2023-05-12T06:16:34.482Z,10.2744
2023-05-12T06:17:35.493Z,10.6696
2023-05-12T06:18:36.307Z,10.5592
2023-05-12T06:19:37.684Z,10.9298
2023-05-12T06:20:37.936Z,10.7478
2023-05-12T06:21:38.423Z,10.8510
2023-05-12T06:22:38.905Z,11.0405
2023-05-12T06:23:40.075Z,11.3359
2023-05-12T06:24:40.593Z,11.7384
2023-05-12T06:27:43.054Z,12.1453
2023-05-12T06:28:43.649Z,11.8224
2023-05-12T06:29:44.100Z,11.9337
2023-05-12T06:30:44.441Z,11.6089
2023-05-12T06:31:45.293Z,11.7076
2023-05-12T06:32:45.918Z,12.0117
2023-05-12T06:33:47.044Z,12.1287
2023-05-12T06:34:48.161Z,11.6308
2023-05-12T06:35:48.526Z,11.9570
2023-05-12T06:36:49.408Z,12.2869
2023-05-12T06:37:50.266Z,12.3119
2023-05-12T06:38:51.500Z,12.1862
2023-05-12T06:39:52.065Z,11.9817
2023-05-12T06:40:52.964Z,12.2840
2023-05-12T06:41:53.514Z,12.3425
2023-05-12T06:42:54.315Z,12.7308
2023-05-12T06:43:54.681Z,11.8713
2023-05-12T06:44:55.225Z,11.6700
2023-05-12T06:45:55.777Z,11.6038
2023-05-12T06:46:56.927Z,10.9476
2023-05-12T06:47:57.321Z,10.7721
2023-05-12T06:48:57.814Z,11.0036
2023-05-12T06:49:58.829Z,10.9975
2023-05-12T06:50:59.352Z,11.1431
2023-05-12T06:51:59.773Z,11.3448
2023-05-12T06:53:00.984Z,11.8186
2023-05-12T06:54:01.613Z,11.7992
2023-05-12T06:55:02.170Z,11.7981
2023-05-12T06:56:02.997Z,11.6693
2023-05-12T06:57:04.123Z,11.4836
2023-05-12T06:58:05.290Z,11.1972
2023-05-12T06:59:06.633Z,12.1317
2023-05-12T07:00:07.093Z,11.7778
2023-05-12T07:01:08.243Z,14.2221
2023-05-12T07:02:08.287Z,13.9975
2023-05-12T07:08:12.459Z,13.6318
2023-05-12T07:09:13.467Z,14.1665
2023-05-12T07:10:14.444Z,13.2666
2023-05-12T07:11:15.412Z,12.1041
2023-05-12T07:12:16.635Z,12.3338
2023-05-12T07:13:17.704Z,12.3591
2023-05-12T07:14:18.705Z,11.9476
2023-05-12T07:15:19.961Z,11.8285
2023-05-12T07:16:20.395Z,11.3100
2023-05-12T07:17:21.509Z,11.0962
2023-05-12T07:18:22.557Z,11.1454
2023-05-12T07:19:22.566Z,11.3984
2023-05-12T07:20:23.728Z,12.1067
2023-05-12T07:21:24.783Z,11.8681
2023-05-12T07:22:25.644Z,11.5177
2023-05-12T07:23:26.706Z,11.5911
2023-05-12T07:24:27.902Z,12.0483
2023-05-12T07:25:28.453Z,12.5546
2023-05-12T07:29:30.657Z,14.2638
2023-05-12T07:30:31.813Z,14.4431
2023-05-12T07:31:31.851Z,14.2056
2023-05-12T07:32:32.039Z,15.3387
2023-05-12T07:33:33.278Z,16.2938
2023-05-12T07:34:34.263Z,15.8109
2023-05-12T07:35:35.261Z,14.5870
2023-05-12T07:36:36.297Z,13.5202
2023-05-12T07:37:37.277Z,14.3111
2023-05-12T07:38:38.403Z,12.7775
2023-05-12T07:39:39.485Z,12.9591
2023-05-12T07:40:40.814Z,13.0919
2023-05-12T07:41:41.857Z,12.9047
2023-05-12T07:42:42.951Z,13.9347
2023-05-12T07:43:43.803Z,15.7912
2023-05-12T07:44:44.819Z,16.9506
2023-05-12T07:45:45.060Z,15.2094
2023-05-12T07:46:46.210Z,15.3381
2023-05-12T07:47:47.473Z,14.3789
2023-05-12T07:48:47.463Z,15.9857
2023-05-12T07:49:48.438Z,15.3343
2023-05-12T07:50:49.698Z,15.9954
2023-05-12T07:55:52.832Z,13.6809
2023-05-12T07:56:53.876Z,13.7801
2023-05-12T07:57:55.089Z,13.7079
2023-05-12T07:58:56.118Z,13.5987
2023-05-12T07:59:56.131Z,13.0778
2023-05-12T08:00:57.262Z,13.6047
2023-05-12T08:01:58.513Z,13.5220
2023-05-12T08:02:58.757Z,13.8471
2023-05-12T08:13:05.203Z,13.7943
2023-05-12T08:14:05.489Z,13.6925
2023-05-12T08:15:06.583Z,15.1506
2023-05-12T08:16:06.752Z,15.4214
2023-05-12T08:17:07.221Z,14.7328
2023-05-12T08:18:08.394Z,15.5297
2023-05-12T08:19:08.476Z,16.4161
2023-05-12T08:20:08.484Z,15.0297
2023-05-12T08:21:09.527Z,15.5288
2023-05-12T08:22:09.617Z,15.8786
2023-05-12T08:23:10.093Z,15.4943
2023-05-12T08:24:11.149Z,16.5694
2023-05-12T08:25:12.665Z,16.4862
2023-05-12T08:26:12.675Z,16.0608
2023-05-12T08:27:13.875Z,14.3339
2023-05-12T08:28:14.895Z,15.0785
2023-05-12T08:29:15.898Z,14.1485
2023-05-12T08:30:16.713Z,14.2020
2023-05-12T08:31:16.853Z,14.4833
2023-05-12T08:32:16.856Z,15.2653
2023-05-12T08:33:17.952Z,14.7273
2023-05-12T08:34:18.933Z,14.5104
2023-05-12T08:35:21.066Z,14.4307
2023-05-12T08:36:20.928Z,13.9867
2023-05-12T08:37:22.014Z,13.7776
2023-05-12T08:38:22.193Z,13.4651
2023-05-12T08:39:23.108Z,14.1004
2023-05-12T08:40:24.235Z,13.9051
2023-05-12T08:41:25.217Z,13.6875
2023-05-12T08:42:26.245Z,13.9194
2023-05-12T08:43:27.152Z,13.5850
2023-05-12T08:44:27.815Z,14.4180
2023-05-12T08:45:28.825Z,16.0350
2023-05-12T08:46:30.150Z,15.1517
2023-05-12T08:47:30.342Z,14.2140
2023-05-12T08:48:30.425Z,14.4333
2023-05-12T08:49:31.476Z,13.7635
2023-05-12T08:50:31.607Z,13.4554
2023-05-12T08:51:32.826Z,14.5703
2023-05-12T09:02:53.911Z,16.4153
2023-05-12T09:03:47.449Z,16.2850
2023-05-12T09:04:48.625Z,15.2647
2023-05-12T09:05:49.078Z,14.9714
2023-05-12T09:06:50.217Z,14.8033
2023-05-12T09:07:50.629Z,15.1600
2023-05-12T09:08:51.815Z,15.7740
2023-05-12T09:09:52.975Z,15.1898
2023-05-12T09:10:53.847Z,16.3141
2023-05-12T09:11:54.883Z,16.7869
2023-05-12T09:12:55.810Z,17.5361
2023-05-12T09:13:57.074Z,16.3236
2023-05-12T09:14:58.188Z,17.0082
2023-05-12T09:15:59.355Z,16.0079
2023-05-12T09:16:59.418Z,16.5271
2023-05-12T09:18:00.011Z,14.9344
2023-05-12T09:19:00.717Z,15.0297
2023-05-12T09:20:00.769Z,14.7336
2023-05-12T09:21:00.819Z,14.5003
2023-05-12T09:22:01.907Z,14.7748
2023-05-12T09:23:02.972Z,14.2925
2023-05-12T09:24:03.974Z,14.5130
2023-05-12T09:25:05.005Z,14.0790
2023-05-12T09:26:06.077Z,13.7112
2023-05-12T09:27:07.136Z,13.8642
2023-05-12T09:28:08.213Z,14.3872
2023-05-12T09:29:09.939Z,14.8158
2023-05-12T09:30:09.471Z,14.8021
2023-05-12T09:31:09.476Z,14.8236
2023-05-12T09:32:10.929Z,15.2882
2023-05-12T09:33:10.976Z,15.2945
2023-05-12T09:34:12.032Z,14.6534
2023-05-12T09:35:13.152Z,14.5685
2023-05-12T09:36:14.174Z,15.0425
2023-05-12T09:37:16.140Z,15.2179
2023-05-12T09:38:17.152Z,14.5762
2023-05-12T09:39:17.653Z,14.9485
2023-05-12T09:40:18.717Z,15.9549
2023-05-12T09:41:19.583Z,15.7901
2023-05-12T09:42:20.625Z,14.9875
2023-05-12T09:43:21.253Z,16.0437
2023-05-12T09:44:22.439Z,17.7660
2023-05-12T09:45:23.053Z,18.5114
2023-05-12T09:46:24.197Z,17.9402
2023-05-12T09:47:24.238Z,17.1615
2023-05-12T09:48:27.466Z,16.0284
2023-05-12T09:49:26.371Z,15.0301
2023-05-12T09:54:30.404Z,14.6012
2023-05-12T09:55:31.604Z,14.6084
2023-05-12T09:56:32.737Z,15.6843
2023-05-12T09:57:33.785Z,15.1392
2023-05-12T09:58:34.945Z,15.0234
2023-05-12T09:59:35.969Z,15.1237
2023-05-12T10:01:43.956Z,14.5450
2023-05-12T10:02:44.155Z,14.4308
2023-05-12T10:03:44.251Z,14.9452
2023-05-12T10:04:44.415Z,15.1141
2023-05-12T10:05:44.993Z,14.8952
2023-05-12T10:06:45.986Z,14.8825
2023-05-12T10:07:46.985Z,14.7888
2023-05-12T10:08:48.161Z,15.0610
2023-05-12T10:09:49.316Z,15.6099
2023-05-12T10:10:50.475Z,16.4157
2023-05-12T10:11:53.537Z,17.1209
2023-05-12T10:12:52.578Z,15.9149
2023-05-12T10:13:53.538Z,15.8627
2023-05-12T10:14:54.363Z,16.4429
2023-05-12T10:15:55.428Z,17.0612
2023-05-12T10:16:56.745Z,16.8022
2023-05-12T10:17:56.956Z,16.8145
2023-05-12T10:18:58.218Z,16.4906
2023-05-12T10:19:58.293Z,16.8830
2023-05-12T10:20:59.151Z,16.9920
2023-05-12T10:22:00.247Z,16.5981
2023-05-12T10:23:01.165Z,17.6410
2023-05-12T10:24:02.248Z,17.5707
2023-05-12T10:25:03.435Z,17.2158
2023-05-12T10:26:03.973Z,17.6598
2023-05-12T10:27:05.132Z,17.2329
2023-05-12T10:28:07.033Z,18.0013
2023-05-12T10:29:06.877Z,18.3958
2023-05-12T10:30:07.321Z,19.7343
2023-05-12T10:31:07.527Z,18.4800
2023-05-12T10:32:07.498Z,18.9186
2023-05-12T10:34:09.310Z,17.2326
2023-05-12T10:35:10.381Z,17.3668
2023-05-12T10:36:11.176Z,17.7330
2023-05-12T10:37:12.247Z,17.3988
2023-05-12T10:38:13.170Z,16.9671
2023-05-12T10:39:14.292Z,17.4014
2023-05-12T10:40:15.528Z,17.1837
2023-05-12T10:41:16.543Z,16.0959
2023-05-12T10:42:16.754Z,15.7728
2023-05-12T10:53:24.408Z,15.0245
2023-05-12T10:54:24.972Z,15.2141
2023-05-12T10:55:25.374Z,15.5766
2023-05-12T10:56:25.617Z,15.4007
2023-05-12T10:57:26.047Z,15.2721
2023-05-12T10:58:26.770Z,14.7357
2023-05-12T10:59:26.384Z,15.6758
2023-05-12T11:00:26.917Z,15.2087
2023-05-12T11:01:27.660Z,15.1263
2023-05-12T11:02:30.666Z,15.3450
2023-05-12T11:03:33.405Z,15.2182
2023-05-12T11:04:33.889Z,15.4299
2023-05-12T11:05:33.694Z,16.0920
2023-05-12T11:06:34.330Z,16.0514
2023-05-12T11:10:35.790Z,15.3605
2023-05-12T11:11:36.303Z,15.4240
2023-05-12T11:12:36.801Z,15.8219
2023-05-12T11:13:36.814Z,16.1919
2023-05-12T11:14:37.783Z,15.8107
2023-05-12T11:15:38.272Z,15.1476
2023-05-12T11:16:39.542Z,15.4019
2023-05-12T11:17:40.637Z,15.9977
2023-05-12T11:18:40.676Z,16.1341
2023-05-12T11:19:42.052Z,15.6383
2023-05-12T11:20:42.921Z,15.8243
2023-05-12T11:21:44.747Z,15.7863
2023-05-12T11:25:46.033Z,15.7048
2023-05-12T11:26:47.002Z,15.5742
2023-05-12T11:27:48.176Z,15.8190
2023-05-12T11:28:49.250Z,15.6197
2023-05-12T11:29:50.267Z,16.0019
2023-05-12T11:30:53.929Z,15.9114
2023-05-12T11:31:52.395Z,16.0633
2023-05-12T11:32:53.498Z,15.8646
2023-05-12T11:34:08.277Z,15.8508
2023-05-12T11:34:55.811Z,15.0533
2023-05-12T11:35:56.608Z,15.2033
2023-05-12T11:36:57.140Z,15.4010
2023-05-12T11:56:13.156Z,19.5126
2023-05-12T11:57:14.201Z,21.6162
2023-05-12T11:58:15.110Z,21.4647
2023-05-12T11:59:16.148Z,19.6900
2023-05-12T12:00:16.512Z,20.8089
2023-05-12T12:01:17.560Z,21.5564
2023-05-12T12:02:20.043Z,21.7582
2023-05-12T12:03:18.923Z,22.8073
2023-05-12T12:04:19.781Z,21.1515
2023-05-12T12:05:20.083Z,20.8943
2023-05-12T12:06:20.216Z,21.1961
2023-05-12T12:07:21.045Z,20.2683
2023-05-12T12:08:21.327Z,20.4747
2023-05-12T12:09:22.435Z,21.8338
2023-05-12T12:10:23.560Z,20.5875
2023-05-12T12:11:24.552Z,19.5365
2023-05-12T12:12:25.572Z,20.4428
2023-05-12T12:13:27.206Z,19.7311
2023-05-12T12:14:28.340Z,19.6682
2023-05-12T12:15:29.401Z,20.6935
2023-05-12T12:16:30.640Z,20.5633
2023-05-12T12:17:31.008Z,21.8068
2023-05-12T12:18:31.508Z,22.2127
2023-05-12T12:19:32.809Z,20.6143
2023-05-12T12:20:33.673Z,20.0725
2023-05-12T12:21:34.639Z,17.6478
2023-05-12T12:22:35.714Z,17.8527
2023-05-12T12:23:49.951Z,18.5404
2023-05-12T12:24:37.217Z,19.0040
2023-05-12T12:25:38.168Z,20.2126
2023-05-12T12:26:39.663Z,20.8108
2023-05-12T12:27:39.426Z,19.5085
2023-05-12T12:28:40.573Z,19.3311
2023-05-12T12:29:41.533Z,19.6178
2023-05-12T12:30:42.566Z,20.1693
2023-05-12T12:31:43.786Z,21.8209
2023-05-12T12:32:44.924Z,21.7510
2023-05-12T12:33:45.888Z,21.4271
2023-05-12T12:34:47.116Z,21.5518
2023-05-12T12:35:47.486Z,22.1093
2023-05-12T12:36:48.575Z,20.1547
2023-05-12T12:37:48.701Z,19.7390
2023-05-12T12:38:49.536Z,21.4062
2023-05-12T12:39:50.567Z,21.4823
2023-05-12T12:40:51.626Z,20.7899
2023-05-12T12:41:52.595Z,21.5846
2023-05-12T12:42:53.515Z,20.6009
2023-05-12T12:43:54.601Z,20.4099
2023-05-12T12:44:55.645Z,18.2880
2023-05-12T12:45:56.744Z,18.6809
2023-05-12T12:46:57.606Z,19.4049
2023-05-12T12:47:58.032Z,19.5865
2023-05-12T12:48:59.164Z,19.8556
2023-05-12T12:50:00.269Z,17.9702
2023-05-12T12:51:00.312Z,17.0025
2023-05-12T12:52:01.544Z,18.6635
2023-05-12T12:53:02.480Z,19.3731
2023-05-12T12:54:03.401Z,20.2145
2023-05-12T12:55:04.402Z,19.5359
2023-05-12T12:56:05.382Z,19.8513
2023-05-12T12:57:06.461Z,19.9867
2023-05-12T12:58:07.676Z,20.2639
2023-05-12T12:59:08.661Z,19.2848
2023-05-12T13:00:09.792Z,19.5609
2023-05-12T13:01:10.828Z,21.0162
2023-05-12T13:02:12.464Z,20.4558
2023-05-12T13:03:12.048Z,20.1734
2023-05-12T13:04:12.171Z,20.8131
2023-05-12T13:05:13.198Z,21.0316
2023-05-12T13:06:14.069Z,20.7142
2023-05-12T13:07:15.116Z,20.8709
2023-05-12T13:08:16.159Z,21.5169
2023-05-12T13:09:19.668Z,20.9505
2023-05-12T13:10:17.119Z,21.0854
2023-05-12T13:11:18.100Z,19.8642
2023-05-12T13:12:19.137Z,20.6739
2023-05-12T13:13:20.042Z,20.6814
2023-05-12T13:14:21.024Z,20.3492
2023-05-12T13:15:22.403Z,19.8038
2023-05-12T13:16:22.490Z,20.2145
2023-05-12T13:17:22.442Z,20.4639
2023-05-12T13:18:23.811Z,19.8560
2023-05-12T13:19:24.632Z,19.4006
2023-05-12T13:20:25.615Z,19.8613
2023-05-12T13:21:26.518Z,19.8406
2023-05-12T13:22:27.530Z,20.0325
2023-05-12T13:23:28.529Z,20.4114
2023-05-12T13:24:29.580Z,20.4086
2023-05-12T13:25:30.729Z,21.5904
2023-05-12T13:26:31.182Z,19.4161
2023-05-12T13:27:32.190Z,21.1877
2023-05-12T13:28:33.204Z,20.9184
2023-05-12T13:29:34.346Z,22.0713
2023-05-12T13:30:35.542Z,21.1590
2023-05-12T13:31:36.510Z,17.7805
2023-05-12T13:32:37.713Z,16.8703
2023-05-12T13:33:38.872Z,16.3207
2023-05-12T13:34:39.813Z,16.4579
2023-05-12T13:35:40.719Z,16.2159
2023-05-12T13:36:41.709Z,17.5871
2023-05-12T13:37:42.841Z,16.6544
2023-05-12T13:38:43.977Z,17.9490
2023-05-12T13:39:45.043Z,20.1881
2023-05-12T13:40:46.196Z,20.9795
2023-05-12T13:41:47.250Z,20.9109
2023-05-12T13:42:48.185Z,20.6395
2023-05-12T13:43:49.269Z,20.9301
2023-05-12T13:44:50.342Z,20.1265
2023-05-12T13:45:50.557Z,21.6915
2023-05-12T13:46:50.744Z,20.9318
2023-05-12T13:47:51.883Z,21.9003
2023-05-12T13:48:51.858Z,20.7993
2023-05-12T13:49:52.955Z,22.6779
2023-05-12T13:50:54.103Z,21.7369
2023-05-12T13:51:55.239Z,21.8759
2023-05-12T13:52:56.509Z,22.3799
2023-05-12T13:53:57.609Z,22.8532
2023-05-12T13:54:59.168Z,21.0169
2023-05-12T13:55:59.329Z,21.0869
2023-05-12T13:57:00.315Z,21.0704
2023-05-12T13:58:01.299Z,20.2732
2023-05-12T13:59:02.336Z,20.4777
2023-05-12T14:00:03.281Z,20.9209
2023-05-12T14:01:04.986Z,21.4160
2023-05-12T14:02:06.111Z,22.0450
2023-05-12T14:03:07.253Z,20.3638
2023-05-12T14:04:08.510Z,20.5996
2023-05-12T14:05:08.806Z,21.3300
2023-05-12T14:06:09.953Z,21.4576
2023-05-12T14:07:10.668Z,22.0052
2023-05-12T14:08:11.665Z,22.7608
2023-05-12T14:09:12.934Z,22.2417
2023-05-12T14:10:13.722Z,23.0221
2023-05-12T14:11:14.736Z,20.7224
2023-05-12T14:12:15.900Z,19.9415
2023-05-12T14:13:17.034Z,19.9304
2023-05-12T14:14:18.106Z,18.1990
2023-05-12T14:15:32.286Z,17.5178
2023-05-12T14:16:23.882Z,17.9515
2023-05-12T14:17:24.036Z,18.0368
2023-05-12T14:18:24.098Z,17.3926
2023-05-12T14:19:24.203Z,17.2117
2023-05-12T14:20:25.476Z,17.3310
2023-05-12T14:21:25.198Z,16.9352
2023-05-12T14:22:26.813Z,16.9118
2023-05-12T14:23:27.394Z,16.6696
2023-05-12T14:24:28.365Z,16.6325
2023-05-12T14:25:29.501Z,16.5468
2023-05-12T14:26:30.678Z,16.3494
2023-05-12T14:27:31.827Z,16.4431
2023-05-12T14:28:32.351Z,16.5443
2023-05-12T14:29:32.984Z,16.7908
2023-05-12T14:30:33.004Z,16.6066
2023-05-12T14:31:34.212Z,16.6644
2023-05-12T14:32:35.397Z,16.9697
2023-05-12T14:33:36.453Z,16.8654
2023-05-12T14:34:37.626Z,16.7311
2023-05-12T14:35:37.994Z,16.3727
2023-05-12T14:36:39.087Z,16.4282
2023-05-12T14:37:41.229Z,16.4631
2023-05-12T14:38:41.580Z,16.7276
2023-05-12T14:39:42.623Z,16.9811
2023-05-12T14:40:44.316Z,17.4339
2023-05-12T14:47:49.701Z,16.3788
2023-05-12T14:48:50.907Z,16.5556
2023-05-12T14:49:50.892Z,16.7896
2023-05-12T14:50:52.007Z,16.4922
2023-05-12T14:51:53.051Z,16.5234
2023-05-12T14:52:54.113Z,17.8645
2023-05-12T14:53:55.288Z,19.4119
2023-05-12T14:54:55.392Z,20.3266
2023-05-12T14:55:56.189Z,20.3324